Time;durP1;ratioP1;P1;durP2;ratioP2;P2;SDS_P1;SDS_P2;PMS_P1;PMS_P2;Temp;Humidity;BMP_temperature;BMP_pressure;BME280_temperature;BME280_humidity;BME280_pressure;Samples;Min_cycle;Max_cycle;Signal;HPM_P1;HPM_P2
2023/09/22 00:00:10;;;;;;;1.92;1.05;;;;;;;12.32;100.00;92778.16;5027227;28;20847;-58
2023/09/22 00:02:37;;;;;;;1.80;0.90;;;;;;;12.12;100.00;92797.81;5028629;28;20045;-59
2023/09/22 00:05:07;;;;;;;4.67;1.00;;;;;;;12.25;100.00;92801.22;5029199;28;20920;-59
2023/09/22 00:07:34;;;;;;;2.75;0.80;;;;;;;12.31;100.00;92791.13;5030006;28;20110;-59
2023/09/22 00:10:01;;;;;;;4.88;0.88;;;;;;;12.38;100.00;92806.63;5029315;28;20411;-58
2023/09/22 00:12:31;;;;;;;2.15;1.15;;;;;;;12.47;100.00;92817.63;5030094;28;20040;-59
2023/09/22 00:14:59;;;;;;;2.40;1.02;;;;;;;12.46;100.00;92820.84;5044740;28;20052;-59
2023/09/22 00:17:27;;;;;;;2.30;0.97;;;;;;;12.43;100.00;92824.50;5044702;28;20049;-59
2023/09/22 00:19:54;;;;;;;3.13;0.90;;;;;;;12.26;100.00;92816.50;5028579;28;20043;-58
2023/09/22 00:22:22;;;;;;;3.38;1.10;;;;;;;12.30;100.00;92817.13;5029461;28;20042;-58
2023/09/22 00:24:50;;;;;;;2.22;0.85;;;;;;;12.25;100.00;92809.47;5029047;28;20059;-58
2023/09/22 00:27:17;;;;;;;2.65;1.20;;;;;;;12.33;100.00;92805.22;5029116;28;20060;-58
2023/09/22 00:29:44;;;;;;;2.10;0.97;;;;;;;12.15;100.00;92800.44;5028771;28;20049;-58
2023/09/22 00:32:11;;;;;;;2.28;1.00;;;;;;;12.08;100.00;92786.19;5028987;28;20038;-58
2023/09/22 00:34:39;;;;;;;2.33;1.10;;;;;;;12.03;100.00;92781.28;5028861;28;20390;-57
2023/09/22 00:37:06;;;;;;;2.05;0.90;;;;;;;12.11;100.00;92785.28;5028982;28;20045;-59
2023/09/22 00:39:33;;;;;;;2.33;0.88;;;;;;;12.30;100.00;92786.88;5029075;28;20055;-59
2023/09/22 00:42:01;;;;;;;1.80;0.80;;;;;;;12.27;100.00;92795.25;5028521;28;20045;-58
2023/09/22 00:44:29;;;;;;;3.13;1.60;;;;;;;12.24;100.00;92796.94;5029221;28;20045;-59
2023/09/22 00:46:57;;;;;;;2.47;1.13;;;;;;;12.19;100.00;92806.56;5028110;28;20044;-58
2023/09/22 00:49:24;;;;;;;2.40;1.05;;;;;;;12.03;100.00;92801.28;5036408;28;20079;-59
2023/09/22 00:51:51;;;;;;;2.50;1.10;;;;;;;12.08;100.00;92805.44;5036601;28;20049;-59
2023/09/22 00:54:19;;;;;;;2.07;0.90;;;;;;;11.96;100.00;92810.56;5028962;28;20045;-59
2023/09/22 00:56:46;;;;;;;2.42;0.90;;;;;;;11.90;100.00;92809.63;5028245;28;20073;-58
2023/09/22 00:59:14;;;;;;;2.75;1.20;;;;;;;11.79;100.00;92803.72;5028804;28;20099;-58
2023/09/22 01:01:44;;;;;;;3.40;1.15;;;;;;;11.73;100.00;92811.81;5039146;28;20711;-58
2023/09/22 01:04:12;;;;;;;2.22;1.10;;;;;;;11.64;100.00;92805.50;5009670;28;20044;-59
2023/09/22 01:06:43;;;;;;;3.03;0.80;;;;;;;11.59;100.00;92806.84;5008234;28;20517;-57
2023/09/22 01:09:09;;;;;;;2.42;1.10;;;;;;;11.59;100.00;92809.59;5008734;28;20046;-58
2023/09/22 01:11:36;;;;;;;2.25;1.00;;;;;;;11.53;100.00;92803.91;5008920;28;20046;-58
2023/09/22 01:14:03;;;;;;;4.05;1.65;;;;;;;11.62;100.00;92802.44;5007870;28;20404;-58
2023/09/22 01:16:30;;;;;;;1.92;1.00;;;;;;;11.52;100.00;92805.13;5008953;28;20073;-58
2023/09/22 01:18:57;;;;;;;2.73;1.00;;;;;;;11.54;100.00;92799.19;5008416;28;20046;-59
2023/09/22 01:21:28;;;;;;;2.53;1.00;;;;;;;11.56;100.00;92799.50;5008983;28;20056;-59
2023/09/22 01:23:55;;;;;;;2.38;1.20;;;;;;;11.50;100.00;92813.03;5008597;28;20545;-59
2023/09/22 01:26:22;;;;;;;2.47;0.88;;;;;;;11.48;100.00;92820.22;5008902;28;20045;-59
2023/09/22 01:28:49;;;;;;;2.03;0.95;;;;;;;11.52;100.00;92815.34;5024218;28;20053;-58
2023/09/22 01:31:16;;;;;;;1.97;0.87;;;;;;;11.62;100.00;92799.69;5026961;28;20241;-59
2023/09/22 01:33:45;;;;;;;3.38;0.90;;;;;;;11.52;100.00;92788.63;5028134;28;20720;-58
2023/09/22 01:36:16;;;;;;;2.35;1.00;;;;;;;11.43;100.00;92785.84;5028161;28;20076;-59
2023/09/22 01:38:43;;;;;;;2.80;0.90;;;;;;;11.46;100.00;92792.41;5028183;28;20406;-58
2023/09/22 01:41:13;;;;;;;3.13;1.20;;;;;;;11.45;100.00;92818.34;5028306;28;20047;-59
2023/09/22 01:43:40;;;;;;;2.20;0.90;;;;;;;11.46;100.00;92803.41;5027938;28;20049;-59
2023/09/22 01:46:06;;;;;;;2.40;1.15;;;;;;;11.49;100.00;92784.06;5028013;28;20041;-59
2023/09/22 01:48:34;;;;;;;2.50;1.30;;;;;;;11.55;100.00;92767.72;5028508;28;20057;-59
2023/09/22 01:51:04;;;;;;;3.00;1.00;;;;;;;11.63;100.00;92779.22;5027927;28;20038;-59
2023/09/22 01:53:31;;;;;;;2.33;1.20;;;;;;;11.70;100.00;92803.72;5028401;28;20034;-59
2023/09/22 01:55:58;;;;;;;2.20;1.00;;;;;;;11.71;100.00;92805.22;5026012;28;20053;-59
2023/09/22 01:58:24;;;;;;;3.85;1.15;;;;;;;11.66;100.00;92805.81;5026745;28;20041;-59
2023/09/22 02:00:51;;;;;;;2.50;1.15;;;;;;;11.64;100.00;92806.25;5027858;28;20053;-59
2023/09/22 02:03:18;;;;;;;2.60;1.15;;;;;;;11.58;100.00;92799.81;5028109;28;20056;-59
2023/09/22 02:05:46;;;;;;;2.22;1.00;;;;;;;11.55;100.00;92790.50;5027847;28;20046;-59
2023/09/22 02:08:12;;;;;;;2.03;1.10;;;;;;;11.62;100.00;92783.97;5027928;28;20044;-59
2023/09/22 02:10:39;;;;;;;2.30;1.00;;;;;;;11.65;100.00;92776.78;5027867;28;20057;-58
2023/09/22 02:13:08;;;;;;;2.08;0.90;;;;;;;11.68;100.00;92756.66;5028056;28;20038;-59
2023/09/22 02:15:36;;;;;;;1.98;1.00;;;;;;;11.63;100.00;92784.72;5028420;28;20042;-59
2023/09/22 02:18:04;;;;;;;2.42;1.00;;;;;;;11.72;100.00;92793.03;5026981;28;20786;-59
2023/09/22 02:20:31;;;;;;;1.77;0.87;;;;;;;11.85;100.00;92784.69;5028338;28;20038;-59
2023/09/22 02:22:58;;;;;;;2.03;0.88;;;;;;;11.97;100.00;92800.34;5030271;28;20053;-60
2023/09/22 02:25:25;;;;;;;2.50;1.00;;;;;;;11.96;100.00;92810.56;5030573;28;20048;-59
2023/09/22 02:27:53;;;;;;;1.70;0.80;;;;;;;11.82;100.00;92802.84;5030768;28;20060;-59
2023/09/22 02:30:22;;;;;;;2.55;0.90;;;;;;;11.62;100.00;92827.16;5031359;28;20388;-59
2023/09/22 02:32:49;;;;;;;1.77;0.87;;;;;;;11.63;100.00;92837.72;5030962;28;20057;-59
2023/09/22 02:35:18;;;;;;;2.40;1.05;;;;;;;11.51;100.00;92831.06;5031178;28;20044;-59
2023/09/22 02:37:45;;;;;;;2.28;1.15;;;;;;;11.54;100.00;92832.16;5030978;28;20056;-59
2023/09/22 02:40:14;;;;;;;2.55;0.98;;;;;;;11.60;100.00;92824.88;5031354;28;20054;-59
2023/09/22 02:42:43;;;;;;;2.78;0.93;;;;;;;11.62;100.00;92814.19;5030960;28;20048;-58
2023/09/22 02:45:11;;;;;;;2.63;0.87;;;;;;;11.62;100.00;92810.69;5031038;28;20055;-59
2023/09/22 02:47:40;;;;;;;2.25;0.90;;;;;;;11.56;100.00;92808.50;5030694;28;20037;-57
2023/09/22 02:50:10;;;;;;;2.60;1.15;;;;;;;11.56;100.00;92825.00;5034044;28;20037;-59
2023/09/22 02:52:42;;;;;;;2.88;1.10;;;;;;;11.64;100.00;92808.25;5034552;28;20135;-59
2023/09/22 02:55:10;;;;;;;2.38;1.00;;;;;;;11.64;100.00;92800.00;5049849;28;20049;-59
2023/09/22 02:57:38;;;;;;;2.83;1.03;;;;;;;11.53;100.00;92798.44;5050708;28;20056;-59
2023/09/22 03:00:40;;;;;;;2.40;1.17;;;;;;;11.61;100.00;92848.41;5029652;28;20650;-59
2023/09/22 03:02:58;;;;;;;2.53;1.38;;;;;;;11.73;100.00;92855.00;5029385;28;20116;-59
2023/09/22 03:05:25;;;;;;;2.78;1.10;;;;;;;11.71;100.00;92835.44;5060660;28;20037;-59
2023/09/22 03:07:52;;;;;;;2.28;1.17;;;;;;;11.70;100.00;92820.94;5050306;28;20053;-58
2023/09/22 03:10:19;;;;;;;2.30;1.30;;;;;;;11.65;100.00;92829.78;5050297;28;20039;-59
2023/09/22 03:12:51;;;;;;;2.53;1.23;;;;;;;11.73;100.00;92849.50;5049829;28;20041;-59
2023/09/22 03:15:18;;;;;;;2.67;1.55;;;;;;;11.75;100.00;92844.34;5050316;28;20041;-59
2023/09/22 03:17:45;;;;;;;2.88;1.40;;;;;;;11.75;100.00;92849.81;5050206;28;20057;-59
2023/09/22 03:20:12;;;;;;;2.70;1.38;;;;;;;11.83;100.00;92856.63;5050196;28;20047;-59
2023/09/22 03:22:40;;;;;;;2.50;1.20;;;;;;;11.85;100.00;92840.44;5050063;28;20049;-58
2023/09/22 03:25:11;;;;;;;2.30;1.20;;;;;;;11.89;100.00;92838.34;5050068;28;20051;-59
2023/09/22 03:27:38;;;;;;;2.47;1.52;;;;;;;11.90;100.00;92831.63;5043793;28;20056;-59
2023/09/22 03:30:08;;;;;;;3.03;1.50;;;;;;;11.68;100.00;92828.13;5009431;28;20802;-59
2023/09/22 03:32:35;;;;;;;2.80;1.40;;;;;;;11.63;100.00;92821.22;5014529;28;20048;-59
2023/09/22 03:35:07;;;;;;;2.10;1.13;;;;;;;11.71;100.00;92828.00;5030247;28;20563;-59
2023/09/22 03:37:35;;;;;;;2.67;1.40;;;;;;;11.84;100.00;92827.91;5030193;28;20045;-59
2023/09/22 03:40:41;;;;;;;3.22;1.52;;;;;;;11.76;100.00;92827.41;5030017;28;20042;-59
2023/09/22 03:42:55;;;;;;;3.38;1.40;;;;;;;11.80;100.00;92816.28;5027627;28;20044;-59
2023/09/22 03:45:22;;;;;;;3.35;1.60;;;;;;;11.84;100.00;92813.41;5029740;28;20516;-59
2023/09/22 03:47:49;;;;;;;3.10;1.77;;;;;;;11.82;100.00;92819.34;5028247;28;20045;-59
2023/09/22 03:50:17;;;;;;;3.20;1.50;;;;;;;11.82;100.00;92818.59;5029483;28;20042;-59
2023/09/22 03:52:43;;;;;;;3.33;1.58;;;;;;;11.73;100.00;92824.78;5029586;28;20636;-59
2023/09/22 03:55:11;;;;;;;2.88;1.50;;;;;;;11.82;100.00;92815.84;5029676;28;20516;-59
2023/09/22 03:57:38;;;;;;;6.07;3.28;;;;;;;11.94;100.00;92804.00;5029192;28;20068;-58
2023/09/22 04:00:17;;;;;;;3.00;1.70;;;;;;;11.92;100.00;92798.94;5029560;28;20079;-59
2023/09/22 04:02:46;;;;;;;3.38;1.70;;;;;;;11.97;100.00;92820.38;5029370;28;20052;-59
2023/09/22 04:05:13;;;;;;;3.28;1.60;;;;;;;12.01;100.00;92827.69;5029455;28;20049;-59
2023/09/22 04:07:40;;;;;;;3.53;1.60;;;;;;;12.05;100.00;92814.59;5029214;28;20045;-58
2023/09/22 04:10:08;;;;;;;3.90;1.60;;;;;;;12.11;100.00;92807.28;5029234;28;20045;-59
2023/09/22 04:12:35;;;;;;;3.27;1.30;;;;;;;11.96;100.00;92805.06;5028020;28;20049;-59
2023/09/22 04:15:08;;;;;;;3.33;1.90;;;;;;;11.89;100.00;92805.38;5025762;28;20702;-59
2023/09/22 04:17:35;;;;;;;3.15;1.65;;;;;;;11.86;100.00;92830.22;5023107;28;20280;-59
2023/09/22 04:20:07;;;;;;;3.03;1.67;;;;;;;11.88;100.00;92833.28;5018986;28;20042;-59
2023/09/22 04:22:34;;;;;;;3.10;1.90;;;;;;;11.94;100.00;92820.50;5028362;28;20053;-60
2023/09/22 04:25:08;;;;;;;3.93;1.97;;;;;;;11.92;100.00;92839.44;5032280;28;20037;-60
2023/09/22 04:27:40;;;;;;;3.78;1.90;;;;;;;11.87;100.00;92839.97;5032999;28;20441;-60
2023/09/22 04:30:09;;;;;;;4.78;2.22;;;;;;;11.90;100.00;92837.13;5048218;28;20613;-59
2023/09/22 04:32:37;;;;;;;3.65;2.20;;;;;;;11.90;100.00;92828.13;5042231;28;20045;-59
2023/09/22 04:35:07;;;;;;;3.35;2.20;;;;;;;11.85;100.00;92818.44;5048549;28;20032;-59
2023/09/22 04:37:33;;;;;;;3.77;2.10;;;;;;;11.83;100.00;92820.09;5048758;28;20065;-59
2023/09/22 04:40:00;;;;;;;4.13;2.15;;;;;;;11.89;100.00;92827.34;5048648;28;20053;-60
2023/09/22 04:42:30;;;;;;;4.53;2.53;;;;;;;11.89;100.00;92826.56;5049029;28;20091;-60
2023/09/22 04:44:58;;;;;;;4.13;2.22;;;;;;;11.94;100.00;92821.25;5047846;28;20049;-59
2023/09/22 04:47:24;;;;;;;3.90;2.40;;;;;;;11.98;100.00;92834.88;5061939;28;20063;-60
2023/09/22 04:49:51;;;;;;;4.97;2.10;;;;;;;12.01;100.00;92844.97;5047219;28;20041;-59
2023/09/22 04:52:18;;;;;;;4.63;2.40;;;;;;;11.95;100.00;92833.00;5048509;28;20037;-59
2023/09/22 04:54:45;;;;;;;4.47;2.78;;;;;;;11.82;100.00;92840.56;5046987;28;20048;-59
2023/09/22 04:57:12;;;;;;;5.03;2.75;;;;;;;11.87;100.00;92843.50;5048904;28;20041;-60
2023/09/22 04:59:40;;;;;;;4.20;2.85;;;;;;;11.82;100.00;92844.09;5041242;28;20045;-58
2023/09/22 05:02:07;;;;;;;4.73;2.67;;;;;;;11.89;100.00;92854.06;5044718;28;20045;-60
2023/09/22 05:04:33;;;;;;;3.45;2.17;;;;;;;11.79;100.00;92869.69;5048255;28;20106;-60
2023/09/22 05:07:00;;;;;;;4.32;2.42;;;;;;;11.76;100.00;92873.38;5047876;28;20345;-60
2023/09/22 05:09:27;;;;;;;3.33;2.00;;;;;;;11.88;100.00;92869.78;5048467;28;20049;-60
2023/09/22 05:11:54;;;;;;;3.85;2.40;;;;;;;11.88;100.00;92863.50;5041711;28;20411;-60
2023/09/22 05:14:21;;;;;;;4.00;2.60;;;;;;;11.93;100.00;92851.94;5048134;28;20041;-59
2023/09/22 05:16:48;;;;;;;3.35;2.05;;;;;;;11.85;100.00;92859.69;5047652;28;20041;-59
2023/09/22 05:19:15;;;;;;;3.72;2.42;;;;;;;11.87;100.00;92862.75;5047891;28;20048;-59
2023/09/22 05:21:42;;;;;;;3.22;2.10;;;;;;;11.88;100.00;92867.03;5047481;28;20110;-59
2023/09/22 05:24:09;;;;;;;3.88;2.40;;;;;;;11.85;100.00;92876.19;5047339;28;20494;-59
2023/09/22 05:26:35;;;;;;;3.20;2.00;;;;;;;11.87;100.00;92889.47;5048149;28;20041;-59
2023/09/22 05:29:03;;;;;;;4.90;2.20;;;;;;;11.84;100.00;92880.13;5047696;28;20044;-59
2023/09/22 05:31:29;;;;;;;4.38;1.90;;;;;;;11.85;100.00;92878.94;5047650;28;20063;-60
2023/09/22 05:33:56;;;;;;;4.15;2.20;;;;;;;11.83;100.00;92884.13;5047462;28;20512;-60
2023/09/22 05:36:23;;;;;;;3.40;2.10;;;;;;;11.90;100.00;92905.84;5046852;28;20357;-60
2023/09/22 05:38:50;;;;;;;3.50;2.00;;;;;;;11.85;100.00;92914.66;5029942;28;20051;-60
2023/09/22 05:41:17;;;;;;;2.90;1.80;;;;;;;11.87;100.00;92923.22;5047740;28;20040;-60
2023/09/22 05:43:44;;;;;;;3.38;1.98;;;;;;;11.98;100.00;92917.38;5047379;28;20051;-60
2023/09/22 05:46:11;;;;;;;4.28;1.90;;;;;;;12.07;100.00;92908.41;5030398;28;20063;-59
2023/09/22 05:48:38;;;;;;;2.80;1.70;;;;;;;11.91;100.00;92921.16;5047307;28;20049;-58
2023/09/22 05:51:05;;;;;;;2.97;1.80;;;;;;;11.89;100.00;92926.34;5047985;28;20509;-60
2023/09/22 05:53:32;;;;;;;3.65;1.70;;;;;;;11.95;100.00;92921.00;5047762;28;20052;-60
2023/09/22 05:56:06;;;;;;;2.83;1.70;;;;;;;12.02;100.00;92909.00;5047622;28;20037;-60
2023/09/22 05:58:36;;;;;;;3.78;1.60;;;;;;;12.09;100.00;92919.72;5051188;28;20040;-60
2023/09/22 06:01:11;;;;;;;4.30;1.90;;;;;;;12.17;100.00;92924.50;5050840;28;23159;-59
2023/09/22 06:03:40;;;;;;;3.67;1.90;;;;;;;12.03;100.00;92936.00;5051202;28;20049;-59
2023/09/22 06:06:12;;;;;;;3.20;1.77;;;;;;;12.08;100.00;92945.69;5051171;28;20048;-60
2023/09/22 06:08:40;;;;;;;4.03;1.98;;;;;;;12.15;100.00;92937.16;5051127;28;20551;-60
2023/09/22 06:11:08;;;;;;;2.78;1.60;;;;;;;12.09;100.00;92941.72;5051533;28;20040;-60
2023/09/22 06:13:35;;;;;;;4.00;2.10;;;;;;;12.06;100.00;92964.63;5051254;28;20059;-60
2023/09/22 06:16:02;;;;;;;3.53;1.70;;;;;;;12.12;100.00;92949.06;5050466;28;20048;-59
2023/09/22 06:18:30;;;;;;;3.55;1.60;;;;;;;12.03;100.00;92938.00;5051143;28;20049;-60
2023/09/22 06:20:59;;;;;;;3.28;1.70;;;;;;;11.89;100.00;92931.81;5050694;28;20037;-60
2023/09/22 06:23:27;;;;;;;3.72;1.60;;;;;;;11.92;100.00;92925.41;5051055;28;20044;-60
2023/09/22 06:26:03;;;;;;;3.17;1.75;;;;;;;11.99;100.00;92921.63;5050528;28;20406;-60
2023/09/22 06:28:31;;;;;;;2.57;1.50;;;;;;;12.06;100.00;92909.63;5050829;28;20053;-60
2023/09/22 06:31:01;;;;;;;3.20;1.65;;;;;;;11.99;100.00;92894.13;5050562;28;20055;-60
2023/09/22 06:33:32;;;;;;;3.40;1.65;;;;;;;12.16;100.00;92902.97;5050752;28;20037;-60
2023/09/22 06:36:04;;;;;;;4.25;1.80;;;;;;;12.24;100.00;92895.97;5037669;28;20041;-59
2023/09/22 06:38:34;;;;;;;3.10;1.60;;;;;;;12.19;100.00;92900.06;5050811;28;20071;-60
2023/09/22 06:41:03;;;;;;;5.67;1.60;;;;;;;12.11;100.00;92920.81;5050585;28;20037;-60
2023/09/22 06:43:31;;;;;;;2.95;1.52;;;;;;;12.09;100.00;92930.72;5050525;28;20045;-60
2023/09/22 06:46:03;;;;;;;3.22;1.40;;;;;;;12.07;100.00;92931.16;5050500;28;20075;-60
2023/09/22 06:48:30;;;;;;;3.47;1.55;;;;;;;12.15;100.00;92937.16;5050525;28;20517;-59
2023/09/22 06:50:58;;;;;;;3.17;1.55;;;;;;;12.07;100.00;92936.66;5050478;28;20410;-60
2023/09/22 06:53:29;;;;;;;3.03;1.60;;;;;;;12.21;100.00;92931.84;5049487;28;20037;-60
2023/09/22 06:56:06;;;;;;;3.28;1.30;;;;;;;12.15;100.00;92942.66;5047487;28;20041;-60
2023/09/22 06:58:36;;;;;;;4.07;1.50;;;;;;;12.07;100.00;92947.66;5050830;28;20083;-60
2023/09/22 07:01:16;;;;;;;2.60;1.40;;;;;;;11.99;100.00;92947.16;5050452;28;20098;-60
2023/09/22 07:03:44;;;;;;;3.85;1.60;;;;;;;12.02;100.00;92947.50;5050220;28;20048;-59
2023/09/22 07:06:14;;;;;;;3.10;1.50;;;;;;;11.91;100.00;92951.41;5051109;28;20405;-60
2023/09/22 07:08:45;;;;;;;3.90;1.70;;;;;;;11.95;100.00;92943.00;5049554;28;20045;-60
2023/09/22 07:11:13;;;;;;;3.25;1.60;;;;;;;11.94;100.00;92944.97;5051021;28;20448;-59
2023/09/22 07:13:40;;;;;;;2.70;1.40;;;;;;;11.89;100.00;92939.28;5050346;28;20045;-59
2023/09/22 07:16:09;;;;;;;3.08;1.50;;;;;;;11.97;100.00;92946.06;5033161;28;20561;-59
2023/09/22 07:18:36;;;;;;;3.37;1.37;;;;;;;12.13;100.00;92937.63;5050930;28;20528;-60
2023/09/22 07:21:07;;;;;;;4.13;1.65;;;;;;;12.14;100.00;92939.16;5049840;28;20621;-60
2023/09/22 07:23:34;;;;;;;3.38;1.35;;;;;;;12.11;100.00;92939.28;5051044;28;20401;-60
2023/09/22 07:26:05;;;;;;;2.80;1.42;;;;;;;11.98;100.00;92931.88;5050253;28;20037;-60
2023/09/22 07:28:34;;;;;;;3.28;1.35;;;;;;;11.94;100.00;92931.22;5050247;28;20364;-60
2023/09/22 07:31:11;;;;;;;3.53;1.20;;;;;;;12.07;100.00;92939.41;5049985;28;20052;-60
2023/09/22 07:33:39;;;;;;;2.90;1.20;;;;;;;12.05;100.00;92944.59;5050184;28;20048;-58
2023/09/22 07:36:07;;;;;;;3.08;1.45;;;;;;;11.98;100.00;92951.13;5050196;28;20051;-60
2023/09/22 07:38:34;;;;;;;3.60;1.98;;;;;;;12.12;100.00;92947.09;5050107;28;20049;-60
2023/09/22 07:41:01;;;;;;;2.50;1.60;;;;;;;12.21;100.00;92948.34;5049614;28;20049;-60
2023/09/22 07:43:29;;;;;;;2.90;1.17;;;;;;;12.22;100.00;92950.66;5050313;28;20405;-60
2023/09/22 07:45:57;;;;;;;2.63;1.30;;;;;;;12.14;100.00;92949.41;5049405;28;20129;-59
2023/09/22 07:48:25;;;;;;;2.13;1.17;;;;;;;11.96;100.00;92952.78;5050366;28;20037;-59
2023/09/22 07:50:52;;;;;;;2.75;1.25;;;;;;;12.04;100.00;92956.06;5049459;28;20393;-60
2023/09/22 07:53:20;;;;;;;2.47;1.10;;;;;;;12.29;100.00;92955.88;5049261;28;20436;-59
2023/09/22 07:55:48;;;;;;;2.10;1.00;;;;;;;12.43;100.00;92960.09;5029068;28;20044;-60
2023/09/22 07:58:15;;;;;;;3.55;1.00;;;;;;;12.48;100.00;92950.50;5049459;28;20056;-60
2023/09/22 08:00:46;;;;;;;2.15;1.25;;;;;;;12.65;100.00;92956.53;5049148;28;20421;-59
2023/09/22 08:03:14;;;;;;;2.60;1.10;;;;;;;12.85;100.00;92958.91;5049574;28;20055;-60
2023/09/22 08:05:41;;;;;;;3.25;1.17;;;;;;;12.73;100.00;92950.28;5048702;28;20044;-60
2023/09/22 08:08:10;;;;;;;2.53;1.20;;;;;;;12.95;100.00;92943.94;5048283;28;20045;-60
2023/09/22 08:10:38;;;;;;;2.80;1.10;;;;;;;12.94;100.00;92939.66;5048618;28;20057;-60
2023/09/22 08:13:09;;;;;;;2.67;1.10;;;;;;;12.87;100.00;92935.19;5048101;28;20227;-60
2023/09/22 08:15:40;;;;;;;2.05;0.95;;;;;;;12.96;100.00;92939.97;5048942;28;20048;-60
2023/09/22 08:18:07;;;;;;;2.22;1.10;;;;;;;12.96;100.00;92948.25;5048455;28;20052;-60
2023/09/22 08:20:34;;;;;;;2.03;1.10;;;;;;;12.94;100.00;92945.94;5048030;28;20057;-60
2023/09/22 08:23:01;;;;;;;2.28;1.08;;;;;;;13.03;100.00;92950.69;5048824;28;20036;-60
2023/09/22 08:25:28;;;;;;;1.90;0.90;;;;;;;13.18;100.00;92948.91;5048562;28;20051;-60
2023/09/22 08:27:56;;;;;;;2.35;0.95;;;;;;;13.30;100.00;92957.50;5048131;28;20045;-60
2023/09/22 08:30:24;;;;;;;3.35;1.00;;;;;;;13.38;100.00;92964.25;5048520;28;20041;-60
2023/09/22 08:32:53;;;;;;;2.67;1.00;;;;;;;13.66;100.00;92967.06;5030308;28;20059;-59
2023/09/22 08:35:20;;;;;;;2.50;0.90;;;;;;;13.85;100.00;92968.59;5049004;28;20478;-59
2023/09/22 08:37:47;;;;;;;3.80;1.20;;;;;;;14.10;100.00;92978.53;5048331;28;20041;-60
2023/09/22 08:40:16;;;;;;;4.03;1.20;;;;;;;14.19;100.00;92978.53;5048861;28;20409;-60
2023/09/22 08:42:51;;;;;;;3.65;1.10;;;;;;;14.21;100.00;92986.38;5048079;28;20037;-60
2023/09/22 08:45:19;;;;;;;2.60;1.40;;;;;;;13.96;100.00;92976.41;5048892;28;20051;-60
2023/09/22 08:47:47;;;;;;;2.00;1.10;;;;;;;14.08;100.00;92978.22;5047199;28;20338;-60
2023/09/22 08:50:16;;;;;;;2.47;1.20;;;;;;;14.17;100.00;92971.97;5048734;28;20041;-60
2023/09/22 08:52:48;;;;;;;2.08;1.10;;;;;;;13.85;100.00;92965.09;5047741;28;20448;-59
2023/09/22 08:55:15;;;;;;;2.63;1.13;;;;;;;13.86;100.00;92964.59;5048769;28;20055;-60
2023/09/22 08:57:44;;;;;;;2.00;0.90;;;;;;;14.14;100.00;92978.38;5047679;28;20049;-60
2023/09/22 09:00:20;;;;;;;2.30;1.10;;;;;;;14.15;100.00;92972.41;5030913;28;20059;-60
2023/09/22 09:02:50;;;;;;;2.20;1.02;;;;;;;13.82;100.00;92966.75;5047857;28;20049;-60
2023/09/22 09:05:21;;;;;;;2.03;0.90;;;;;;;13.98;100.00;92960.94;5048261;28;20047;-60
2023/09/22 09:07:49;;;;;;;2.80;1.00;;;;;;;13.93;100.00;92969.06;5048111;28;20051;-60
2023/09/22 09:10:29;;;;;;;2.57;1.10;;;;;;;14.04;100.00;92971.34;5048501;28;20076;-60
2023/09/22 09:13:00;;;;;;;3.00;1.00;;;;;;;14.22;100.00;92976.09;5047791;28;20067;-60
2023/09/22 09:15:41;;;;;;;2.33;1.10;;;;;;;14.47;100.00;92974.97;5048209;28;20559;-59
2023/09/22 09:18:12;;;;;;;2.10;0.90;;;;;;;14.03;100.00;92983.63;5046845;28;20401;-60
2023/09/22 09:20:41;;;;;;;3.28;1.02;;;;;;;13.97;100.00;92981.47;5029744;28;20037;-57
2023/09/22 09:23:18;;;;;;;2.07;0.90;;;;;;;13.69;100.00;92990.97;5048273;28;20043;-58
2023/09/22 09:25:47;;;;;;;2.22;1.00;;;;;;;13.95;100.00;93000.47;5029860;28;20276;-60
2023/09/22 09:28:15;;;;;;;1.88;0.93;;;;;;;13.92;100.00;93000.63;5047886;28;20041;-60
2023/09/22 09:30:52;;;;;;;2.75;0.90;;;;;;;13.98;100.00;92993.25;5048722;28;20464;-59
2023/09/22 09:33:23;;;;;;;2.20;1.00;;;;;;;14.10;100.00;92994.34;5051065;28;20047;-60
2023/09/22 09:35:51;;;;;;;3.03;1.00;;;;;;;14.24;100.00;92990.94;5052081;28;20402;-60
2023/09/22 09:38:20;;;;;;;2.08;0.80;;;;;;;14.20;100.00;92990.34;5052686;28;20041;-60
2023/09/22 09:40:50;;;;;;;2.20;1.00;;;;;;;14.36;100.00;92992.75;5052095;28;20045;-58
2023/09/22 09:43:17;;;;;;;2.28;0.90;;;;;;;14.46;100.00;92979.72;5052764;28;20397;-58
2023/09/22 09:45:56;;;;;;;3.13;0.98;;;;;;;14.60;100.00;92981.09;5051627;28;20439;-58
2023/09/22 09:48:24;;;;;;;2.53;0.90;;;;;;;15.14;100.00;92979.34;5052169;28;20056;-58
2023/09/22 09:50:59;;;;;;;2.25;0.90;;;;;;;15.17;100.00;92978.44;5051621;28;20048;-61
2023/09/22 09:53:37;;;;;;;2.90;1.00;;;;;;;15.58;100.00;92986.34;5052533;28;20041;-61
2023/09/22 09:56:05;;;;;;;2.67;1.30;;;;;;;14.89;100.00;92985.28;5021930;28;20401;-58
2023/09/22 09:58:34;;;;;;;2.67;1.10;;;;;;;14.62;100.00;92989.69;5051911;28;20044;-58
2023/09/22 10:01:05;;;;;;;2.43;1.03;;;;;;;14.47;100.00;93000.59;5051988;28;20048;-58
2023/09/22 10:03:35;;;;;;;2.63;0.90;;;;;;;14.13;100.00;92996.19;5052163;28;20049;-58
2023/09/22 10:06:06;;;;;;;2.15;1.00;;;;;;;14.17;100.00;93007.84;5051362;28;20714;-58
2023/09/22 10:08:33;;;;;;;2.00;0.90;;;;;;;14.35;100.00;93009.81;5052416;28;20114;-58
2023/09/22 10:11:03;;;;;;;1.83;0.80;;;;;;;14.61;100.00;93017.75;5051397;28;20037;-59
2023/09/22 10:13:30;;;;;;;2.17;1.07;;;;;;;14.55;100.00;93020.38;5051920;28;20483;-58
2023/09/22 10:16:04;;;;;;;2.88;1.27;;;;;;;14.55;100.00;93015.59;5051127;28;20040;-58
2023/09/22 10:18:55;;;;;;;2.13;1.00;;;;;;;14.75;100.00;93017.13;5052069;28;20041;-58
2023/09/22 10:21:28;;;;;;;2.03;0.90;;;;;;;14.74;100.00;93007.28;5020031;28;20928;-58
2023/09/22 10:24:23;;;;;;;2.05;0.82;;;;;;;14.68;100.00;92998.09;5031366;28;20123;-58
2023/09/22 10:26:53;;;;;;;2.13;0.80;;;;;;;14.69;100.00;92994.88;5031144;28;20055;-58
2023/09/22 10:29:32;;;;;;;1.60;0.70;;;;;;;14.30;100.00;93004.91;5031795;28;20103;-58
2023/09/22 10:32:15;;;;;;;1.73;0.80;;;;;;;14.22;100.00;93009.97;5029516;28;20313;-58
2023/09/22 10:34:49;;;;;;;1.65;0.70;;;;;;;14.26;100.00;92998.75;5021765;28;20044;-58
2023/09/22 10:37:20;;;;;;;2.30;0.90;;;;;;;14.24;100.00;92999.22;5031552;28;20057;-58
2023/09/22 10:40:08;;;;;;;2.03;0.93;;;;;;;14.23;100.00;93007.97;5031108;28;20049;-58
2023/09/22 10:42:43;;;;;;;1.90;0.90;;;;;;;14.29;100.00;93012.41;5024138;28;20457;-59
2023/09/22 10:45:10;;;;;;;1.95;1.10;;;;;;;14.11;100.00;93013.19;5030018;28;20860;-59
2023/09/22 10:47:44;;;;;;;2.53;1.08;;;;;;;14.15;100.00;93022.06;5031579;28;20042;-58
2023/09/22 10:50:30;;;;;;;1.70;0.88;;;;;;;14.04;100.00;93024.53;5030187;28;20522;-58
2023/09/22 10:52:58;;;;;;;2.57;0.90;;;;;;;13.98;100.00;93018.88;5031274;28;20060;-59
2023/09/22 10:55:36;;;;;;;2.00;0.90;;;;;;;13.47;100.00;93029.69;5031313;28;20045;-58
2023/09/22 10:58:08;;;;;;;2.20;0.85;;;;;;;13.67;100.00;93019.00;5030588;28;20107;-59
2023/09/22 11:00:39;;;;;;;2.20;0.95;;;;;;;13.71;100.00;93022.38;5031231;28;20446;-59
2023/09/22 11:03:08;;;;;;;1.80;0.70;;;;;;;13.81;100.00;93014.88;5030456;28;22147;-59
2023/09/22 11:05:41;;;;;;;1.80;0.83;;;;;;;14.25;100.00;93005.53;5031470;28;20095;-58
2023/09/22 11:08:17;;;;;;;1.70;0.80;;;;;;;15.13;100.00;93007.47;5028940;28;21507;-59
2023/09/22 11:10:52;;;;;;;1.60;0.77;;;;;;;15.87;100.00;92999.53;5030558;28;20049;-59
2023/09/22 11:13:23;;;;;;;2.22;0.70;;;;;;;15.82;100.00;92980.84;5031358;28;20041;-59
2023/09/22 11:15:56;;;;;;;2.67;0.90;;;;;;;15.47;100.00;92978.56;5030394;28;20120;-59
2023/09/22 11:18:32;;;;;;;2.30;0.90;;;;;;;15.93;100.00;92975.50;5031160;28;20541;-59
2023/09/22 11:21:10;;;;;;;2.05;0.90;;;;;;;15.84;100.00;92991.44;5018051;28;20067;-60
2023/09/22 11:23:41;;;;;;;2.00;0.80;;;;;;;15.58;100.00;93005.72;5030900;28;20064;-59
2023/09/22 11:26:14;;;;;;;2.45;0.80;;;;;;;16.16;100.00;93003.63;5029898;28;20803;-60
2023/09/22 11:28:45;;;;;;;2.70;0.88;;;;;;;16.31;100.00;92987.03;5030075;28;20052;-60
2023/09/22 11:31:18;;;;;;;1.73;0.87;;;;;;;15.61;100.00;92974.34;5029866;28;20041;-60
2023/09/22 11:33:59;;;;;;;2.13;0.75;;;;;;;15.82;100.00;92986.38;5029749;28;20056;-60